Time;durP1;ratioP1;P1;durP2;ratioP2;P2;SDS_P1;SDS_P2;PMS_P1;PMS_P2;Temp;Humidity;BMP_temperature;BMP_pressure;BME280_temperature;BME280_humidity;BME280_pressure;Samples;Min_cycle;Max_cycle;Signal;HPM_P1;HPM_P2
2022/07/19 12:15:14;;;;;;;4.30;3.70;;;27.40;88.40;;;;;;5103121;27;20633;-63
2022/07/19 12:17:56;;;;;;;3.50;3.15;;;27.40;90.80;;;;;;5108202;28;20209;-64
2022/07/19 12:20:23;;;;;;;3.65;3.35;;;27.30;91.30;;;;;;5102943;28;20223;-62
2022/07/19 12:22:51;;;;;;;4.00;3.60;;;27.50;91.70;;;;;;5103954;28;20278;-63
2022/07/19 12:25:37;;;;;;;5.15;3.58;;;27.60;92.10;;;;;;5101127;28;20340;-63
2022/07/19 12:28:04;;;;;;;4.57;3.53;;;27.80;92.30;;;;;;5099160;28;20195;-63
2022/07/19 12:30:33;;;;;;;4.18;3.78;;;27.80;92.10;;;;;;5105659;27;20582;-63
2022/07/19 12:33:07;;;;;;;9.90;4.47;;;27.90;92.30;;;;;;5105439;27;20230;-63
2022/07/19 12:35:46;;;;;;;5.03;4.53;;;27.90;92.60;;;;;;5102532;28;20195;-62
2022/07/19 12:38:14;;;;;;;6.15;4.00;;;28.00;92.20;;;;;;5101843;28;20257;-62
2022/07/19 12:40:43;;;;;;;3.80;3.50;;;28.00;92.10;;;;;;5103372;27;20195;-62
2022/07/19 12:43:12;;;;;;;4.07;3.70;;;28.10;92.00;;;;;;5102562;28;20215;-62
2022/07/19 12:45:43;;;;;;;153.85;42.85;;;28.00;91.70;;;;;;5100143;28;20499;-63
2022/07/19 12:48:12;;;;;;;68.53;22.38;;;28.00;91.30;;;;;;5103606;28;20607;-63
2022/07/19 12:50:41;;;;;;;22.48;9.57;;;28.00;91.10;;;;;;5102748;28;20195;-63
2022/07/19 12:53:11;;;;;;;8.20;5.40;;;28.00;91.20;;;;;;5101059;28;20196;-64
2022/07/19 12:55:39;;;;;;;4.07;3.70;;;28.00;91.10;;;;;;5106404;28;20713;-63
2022/07/19 12:58:08;;;;;;;5.85;3.72;;;28.00;91.10;;;;;;5104444;28;20670;-63
2022/07/19 13:00:37;;;;;;;3.30;3.00;;;28.00;91.00;;;;;;5102090;28;20199;-63
2022/07/19 13:03:06;;;;;;;6.00;3.58;;;28.00;91.00;;;;;;5101495;28;20267;-63
2022/07/19 13:05:34;;;;;;;6.38;3.80;;;28.00;91.00;;;;;;5102615;28;20211;-64
2022/07/19 13:08:02;;;;;;;3.90;3.60;;;28.00;90.90;;;;;;5104709;28;20209;-64
2022/07/19 13:10:30;;;;;;;6.78;4.22;;;28.00;90.80;;;;;;5101966;28;20198;-64
2022/07/19 13:12:57;;;;;;;5.43;3.15;;;28.00;90.60;;;;;;5100858;28;20283;-64
2022/07/19 13:15:24;;;;;;;6.30;3.42;;;28.00;90.50;;;;;;5104419;28;20204;-64
2022/07/19 13:17:51;;;;;;;3.47;3.17;;;28.10;90.40;;;;;;5103289;28;20223;-64
2022/07/19 13:20:20;;;;;;;3.33;3.05;;;28.10;90.40;;;;;;5103803;28;20594;-64
2022/07/19 13:22:47;;;;;;;3.95;3.30;;;28.10;90.30;;;;;;5099271;27;20272;-63
2022/07/19 13:25:15;;;;;;;3.38;3.08;;;28.10;90.50;;;;;;5091887;27;20193;-63
2022/07/19 13:27:42;;;;;;;5.25;3.20;;;28.10;89.90;;;;;;5086672;27;20691;-63
2022/07/19 13:30:09;;;;;;;2.88;2.67;;;28.10;89.70;;;;;;5089109;28;20211;-64
2022/07/19 13:32:37;;;;;;;3.47;3.17;;;28.10;89.80;;;;;;5088671;28;20203;-65
2022/07/19 13:35:05;;;;;;;3.83;3.42;;;28.10;90.20;;;;;;5087662;28;20223;-63
2022/07/19 13:37:33;;;;;;;3.13;2.92;;;28.10;89.70;;;;;;5085991;28;20301;-63
2022/07/19 13:40:00;;;;;;;4.50;2.97;;;28.10;89.90;;;;;;5086440;28;20451;-63
2022/07/19 13:42:28;;;;;;;4.38;2.75;;;28.20;90.00;;;;;;5087098;28;20550;-63
2022/07/19 13:44:55;;;;;;;3.65;3.33;;;28.10;90.00;;;;;;5086193;28;20220;-63
2022/07/19 13:47:22;;;;;;;8.73;3.40;;;28.10;89.90;;;;;;5087460;28;20859;-63
2022/07/19 13:49:49;;;;;;;6.75;3.10;;;28.10;90.00;;;;;;5088765;28;20200;-63
2022/07/19 13:52:16;;;;;;;5.00;3.13;;;28.10;90.10;;;;;;5086061;28;20192;-63
2022/07/19 13:54:45;;;;;;;3.05;2.78;;;28.10;90.20;;;;;;5086465;28;20778;-63
2022/07/19 13:57:12;;;;;;;3.85;3.13;;;28.10;90.20;;;;;;5090034;28;20851;-63
2022/07/19 13:59:39;;;;;;;2.97;2.65;;;28.10;90.20;;;;;;5087217;28;20613;-63
2022/07/19 14:02:06;;;;;;;20.17;3.10;;;28.10;90.20;;;;;;5087132;28;20317;-63
2022/07/19 14:04:33;;;;;;;9.82;3.45;;;28.10;90.20;;;;;;5086422;28;20201;-63
2022/07/19 14:07:00;;;;;;;3.38;2.80;;;28.10;90.20;;;;;;5085807;28;20344;-63
2022/07/19 14:09:27;;;;;;;5.00;2.90;;;28.10;90.30;;;;;;5088091;27;20551;-63
2022/07/19 14:11:55;;;;;;;3.25;2.95;;;28.00;90.40;;;;;;5085621;28;20262;-63
2022/07/19 14:14:23;;;;;;;4.53;3.10;;;28.00;90.50;;;;;;5084474;27;20594;-63
2022/07/19 14:16:50;;;;;;;3.55;3.25;;;28.00;90.60;;;;;;5086918;28;20706;-63
2022/07/19 14:19:17;;;;;;;3.33;2.92;;;28.00;90.60;;;;;;5086813;27;20197;-63
2022/07/19 14:21:44;;;;;;;3.00;2.65;;;28.00;90.70;;;;;;5088587;28;20203;-63
2022/07/19 14:24:11;;;;;;;11.27;3.70;;;28.00;90.90;;;;;;5086516;28;20210;-63
2022/07/19 14:26:38;;;;;;;10.43;3.33;;;27.90;90.90;;;;;;5084980;27;20262;-63
2022/07/19 14:29:07;;;;;;;4.78;3.00;;;27.90;90.90;;;;;;5082755;27;20192;-63
2022/07/19 14:31:34;;;;;;;4.38;3.15;;;27.90;91.00;;;;;;5084885;27;20193;-64
2022/07/19 14:34:01;;;;;;;3.33;3.13;;;27.80;91.00;;;;;;5082196;28;20364;-63
2022/07/19 14:36:28;;;;;;;6.20;3.28;;;27.80;91.10;;;;;;5084047;28;20198;-63
2022/07/19 14:38:56;;;;;;;3.30;3.05;;;27.70;91.10;;;;;;5086559;28;20220;-63
2022/07/19 14:41:23;;;;;;;3.63;2.63;;;27.80;91.10;;;;;;5087643;28;22038;-63
2022/07/19 14:43:50;;;;;;;6.43;2.70;;;27.70;91.10;;;;;;5084034;28;20852;-63
2022/07/19 14:46:19;;;;;;;14.60;3.10;;;27.70;91.20;;;;;;5082075;28;20675;-64
2022/07/19 14:48:46;;;;;;;11.07;3.00;;;27.70;91.30;;;;;;5086929;28;20555;-63
2022/07/19 14:51:13;;;;;;;4.57;3.13;;;27.70;91.40;;;;;;5090069;28;20193;-63
2022/07/19 14:53:40;;;;;;;3.85;3.08;;;27.70;91.40;;;;;;5085139;28;20208;-64
2022/07/19 14:56:07;;;;;;;3.30;2.80;;;27.70;91.40;;;;;;5086776;28;20677;-63
2022/07/19 14:58:34;;;;;;;4.45;3.00;;;27.70;91.50;;;;;;5084065;28;20223;-64
2022/07/19 15:01:02;;;;;;;4.53;3.10;;;27.60;91.40;;;;;;5088809;28;20195;-63
2022/07/19 15:03:30;;;;;;;3.33;3.03;;;27.60;91.60;;;;;;5085100;28;20584;-65
2022/07/19 15:05:57;;;;;;;4.93;3.20;;;27.60;91.20;;;;;;5087070;28;20656;-63
2022/07/19 15:08:24;;;;;;;3.00;2.80;;;27.50;91.10;;;;;;5083390;28;20200;-63
2022/07/19 15:10:52;;;;;;;5.20;3.17;;;27.50;91.40;;;;;;5086106;27;20257;-64
2022/07/19 15:13:19;;;;;;;4.57;3.22;;;27.50;91.10;;;;;;5085262;28;20224;-63
2022/07/19 15:15:46;;;;;;;3.90;3.28;;;27.50;91.00;;;;;;5086600;28;20221;-63
2022/07/19 15:18:15;;;;;;;4.68;2.75;;;27.40;90.80;;;;;;5085874;28;20199;-63
2022/07/19 15:20:43;;;;;;;4.97;3.15;;;27.50;90.70;;;;;;5084093;28;20200;-63
2022/07/19 15:23:11;;;;;;;10.32;3.10;;;27.50;90.70;;;;;;5086403;28;20196;-64
2022/07/19 15:25:38;;;;;;;3.83;2.75;;;27.50;90.60;;;;;;5087349;28;20196;-63
2022/07/19 15:28:05;;;;;;;3.10;2.80;;;27.40;90.60;;;;;;5085828;28;20200;-65
2022/07/19 15:30:32;;;;;;;7.50;2.92;;;27.40;90.60;;;;;;5084833;28;20835;-63
2022/07/19 15:32:59;;;;;;;5.78;3.17;;;27.40;90.90;;;;;;5086105;28;20397;-64
2022/07/19 15:35:26;;;;;;;3.58;3.00;;;27.40;90.50;;;;;;5085795;28;20797;-63
2022/07/19 15:37:55;;;;;;;3.30;2.92;;;27.40;90.40;;;;;;5086430;28;20278;-63
2022/07/19 15:40:22;;;;;;;4.55;3.33;;;27.30;90.30;;;;;;5088659;28;20204;-64
2022/07/19 15:42:51;;;;;;;6.20;3.20;;;27.40;90.20;;;;;;5081492;28;20356;-63
2022/07/19 15:45:19;;;;;;;5.03;3.45;;;27.30;90.10;;;;;;5085287;28;20354;-63
2022/07/19 15:47:47;;;;;;;4.32;2.70;;;27.30;90.00;;;;;;5086721;28;20216;-64
2022/07/19 15:50:16;;;;;;;2.83;2.63;;;27.20;90.00;;;;;;5084645;28;20727;-63
2022/07/19 15:52:45;;;;;;;3.35;2.60;;;27.20;90.00;;;;;;5086514;28;20619;-63
2022/07/19 15:55:14;;;;;;;2.92;2.60;;;27.20;90.10;;;;;;5088555;28;20212;-63
2022/07/19 15:57:41;;;;;;;3.45;2.90;;;27.20;90.10;;;;;;5086148;28;20193;-64
2022/07/19 16:00:10;;;;;;;5.80;2.92;;;27.20;90.20;;;;;;5085760;28;20196;-64
2022/07/19 16:02:39;;;;;;;3.88;2.80;;;27.20;90.20;;;;;;5086123;28;20224;-63
2022/07/19 16:05:08;;;;;;;4.25;2.88;;;27.10;90.20;;;;;;5085854;28;20192;-62
2022/07/19 16:07:35;;;;;;;4.15;3.08;;;27.10;90.20;;;;;;5100238;27;20548;-62
2022/07/19 16:10:02;;;;;;;5.68;3.15;;;27.10;90.20;;;;;;5084410;28;20195;-63
2022/07/19 16:12:31;;;;;;;5.22;2.70;;;27.10;90.10;;;;;;5086404;28;20702;-64
2022/07/19 16:14:58;;;;;;;3.10;2.80;;;27.10;90.10;;;;;;5085858;28;20244;-64
2022/07/19 16:17:25;;;;;;;4.68;3.17;;;27.10;90.10;;;;;;5085475;28;22039;-64
2022/07/19 16:19:53;;;;;;;3.30;2.92;;;27.10;90.00;;;;;;5100813;28;20196;-64
2022/07/19 16:22:20;;;;;;;2.67;2.47;;;27.00;90.00;;;;;;5087061;28;20636;-64
2022/07/19 16:24:47;;;;;;;5.80;3.13;;;27.00;89.90;;;;;;5087135;28;20196;-64
2022/07/19 16:27:15;;;;;;;4.68;2.70;;;26.90;89.60;;;;;;5086022;28;20568;-64
2022/07/19 16:29:43;;;;;;;3.60;2.75;;;26.90;89.70;;;;;;5084273;28;20203;-64
2022/07/19 16:32:10;;;;;;;2.75;2.40;;;26.80;89.70;;;;;;5084050;28;20689;-64
2022/07/19 16:34:37;;;;;;;2.75;2.53;;;26.80;89.80;;;;;;5082705;28;20571;-64
2022/07/19 16:37:07;;;;;;;2.65;2.45;;;26.90;89.90;;;;;;5084142;28;20629;-64
2022/07/19 16:39:35;;;;;;;2.47;2.28;;;26.90;89.80;;;;;;5086451;28;20246;-64
2022/07/19 16:42:02;;;;;;;3.03;2.45;;;26.90;89.80;;;;;;5097547;28;20193;-64
2022/07/19 16:44:29;;;;;;;4.97;3.00;;;26.80;89.70;;;;;;5083738;28;20199;-64
2022/07/19 16:46:57;;;;;;;2.85;2.58;;;26.90;89.80;;;;;;5084766;28;20658;-64
2022/07/19 16:49:25;;;;;;;2.63;2.42;;;26.80;89.70;;;;;;5087403;28;20207;-64
2022/07/19 16:51:52;;;;;;;2.72;2.53;;;26.80;89.60;;;;;;5083860;28;20192;-65
2022/07/19 16:54:19;;;;;;;2.85;2.63;;;26.80;89.60;;;;;;5086373;28;20201;-64
2022/07/19 16:56:46;;;;;;;8.65;3.28;;;26.70;89.50;;;;;;5088709;28;20211;-63
2022/07/19 16:59:13;;;;;;;3.70;2.30;;;26.60;89.40;;;;;;5083433;28;20195;-63
2022/07/19 17:01:40;;;;;;;4.75;3.00;;;26.60;89.60;;;;;;5087549;28;20284;-63
2022/07/19 17:04:08;;;;;;;2.90;2.58;;;26.60;89.60;;;;;;5104495;27;20659;-63
2022/07/19 17:06:36;;;;;;;2.72;2.53;;;26.60;89.70;;;;;;5102738;27;20275;-63
2022/07/19 17:09:05;;;;;;;2.67;2.47;;;26.60;89.80;;;;;;5093326;28;20224;-63
2022/07/19 17:11:32;;;;;;;3.05;2.53;;;26.50;89.70;;;;;;5088627;28;20226;-63
2022/07/19 17:13:59;;;;;;;2.90;2.55;;;26.50;89.70;;;;;;5087379;28;20291;-63
2022/07/19 17:16:26;;;;;;;5.85;2.70;;;26.50;89.50;;;;;;5088870;28;20451;-63
2022/07/19 17:18:54;;;;;;;2.47;2.22;;;26.40;89.30;;;;;;5087031;28;20653;-64
2022/07/19 17:21:22;;;;;;;2.50;2.30;;;26.40;89.10;;;;;;5088422;28;20696;-64
2022/07/19 17:23:49;;;;;;;3.03;2.47;;;26.40;89.00;;;;;;5088627;28;20204;-64
2022/07/19 17:26:17;;;;;;;3.08;2.35;;;26.40;88.90;;;;;;5087934;28;20621;-64
2022/07/19 17:28:44;;;;;;;3.35;2.10;;;26.40;88.80;;;;;;5087022;28;20330;-64
2022/07/19 17:31:11;;;;;;;1.88;1.77;;;26.40;88.80;;;;;;5088385;28;20279;-64
2022/07/19 17:33:38;;;;;;;1.92;1.73;;;26.40;88.80;;;;;;5088698;28;20618;-64
2022/07/19 17:36:06;;;;;;;4.22;2.28;;;26.40;88.80;;;;;;5091191;28;20215;-64
2022/07/19 17:38:35;;;;;;;2.97;2.22;;;26.40;88.80;;;;;;5085688;28;20220;-64
2022/07/19 17:41:03;;;;;;;1.90;1.77;;;26.30;88.80;;;;;;5084863;28;20196;-66
2022/07/19 17:43:30;;;;;;;1.92;1.83;;;26.40;88.90;;;;;;5089088;28;20297;-64
2022/07/19 17:45:57;;;;;;;1.92;1.83;;;26.30;88.80;;;;;;5087335;28;20266;-64
2022/07/19 17:48:24;;;;;;;2.60;1.52;;;26.30;88.80;;;;;;5090736;28;20212;-64
2022/07/19 17:50:51;;;;;;;1.50;1.50;;;26.30;88.90;;;;;;5088554;28;20204;-64
2022/07/19 17:53:19;;;;;;;1.70;1.60;;;26.30;88.90;;;;;;5086366;28;20789;-64
2022/07/19 17:55:47;;;;;;;1.83;1.40;;;26.30;88.90;;;;;;5090243;28;20212;-64
2022/07/19 17:58:14;;;;;;;2.40;1.50;;;26.30;89.00;;;;;;5117290;27;20210;-64
2022/07/19 18:00:42;;;;;;;1.50;1.40;;;26.30;89.10;;;;;;5087884;28;20199;-64
2022/07/19 18:03:10;;;;;;;1.50;1.40;;;26.20;89.00;;;;;;5086490;28;20201;-64
2022/07/19 18:05:38;;;;;;;1.55;1.38;;;26.20;89.10;;;;;;5087589;28;20192;-64
2022/07/19 18:08:06;;;;;;;1.67;1.58;;;26.20;89.10;;;;;;5090835;28;20198;-64
2022/07/19 18:10:34;;;;;;;2.47;1.27;;;26.20;89.20;;;;;;5086797;28;20193;-64
2022/07/19 18:13:03;;;;;;;1.30;1.30;;;26.20;89.20;;;;;;5086049;28;20236;-64
2022/07/19 18:15:30;;;;;;;1.48;1.45;;;26.20;89.30;;;;;;5086989;28;20204;-64
2022/07/19 18:17:57;;;;;;;1.52;1.42;;;26.10;89.20;;;;;;5103239;27;20284;-64
2022/07/19 18:20:24;;;;;;;1.60;1.50;;;26.10;89.20;;;;;;5085503;28;20749;-64
2022/07/19 18:22:52;;;;;;;2.33;1.40;;;26.10;89.20;;;;;;5083144;28;20207;-64
2022/07/19 18:25:19;;;;;;;1.27;1.27;;;26.00;89.10;;;;;;5090449;28;20570;-64
2022/07/19 18:27:47;;;;;;;1.60;1.50;;;26.00;89.20;;;;;;5083195;28;20204;-64
2022/07/19 18:30:15;;;;;;;1.27;1.23;;;26.00;89.30;;;;;;5086277;28;20198;-64
2022/07/19 18:32:43;;;;;;;1.48;1.38;;;25.90;89.30;;;;;;5087176;28;20223;-65
2022/07/19 18:35:10;;;;;;;1.60;1.50;;;25.90;89.30;;;;;;5086531;28;20240;-64
2022/07/19 18:37:38;;;;;;;1.50;1.40;;;25.90;89.20;;;;;;5089532;28;20759;-64
2022/07/19 18:40:07;;;;;;;1.50;1.50;;;25.90;89.30;;;;;;5088029;28;20281;-64
2022/07/19 18:42:34;;;;;;;1.63;1.52;;;25.80;89.30;;;;;;5087002;28;20745;-65
2022/07/19 18:45:01;;;;;;;1.70;1.60;;;25.70;89.40;;;;;;5085474;28;20192;-64
2022/07/19 18:47:29;;;;;;;1.58;1.48;;;25.70;89.50;;;;;;5083253;28;20655;-64
2022/07/19 18:49:56;;;;;;;2.45;1.88;;;25.70;89.70;;;;;;5085475;28;20212;-64
2022/07/19 18:52:23;;;;;;;1.83;1.73;;;25.60;89.70;;;;;;5082675;28;20201;-64
2022/07/19 18:54:50;;;;;;;1.70;1.60;;;25.60;89.80;;;;;;5086900;28;20200;-64
2022/07/19 18:57:18;;;;;;;2.03;1.92;;;25.50;89.90;;;;;;5085167;28;20685;-64
2022/07/19 18:59:45;;;;;;;1.67;1.58;;;25.60;90.00;;;;;;5085384;28;21021;-64
2022/07/19 19:02:12;;;;;;;2.28;1.50;;;25.50;90.00;;;;;;5086800;28;20226;-64
2022/07/19 19:04:40;;;;;;;1.58;1.48;;;25.40;90.00;;;;;;5086356;28;20203;-64
2022/07/19 19:07:07;;;;;;;1.60;1.38;;;25.40;90.10;;;;;;5090967;28;20196;-64
2022/07/19 19:09:35;;;;;;;1.77;1.67;;;25.40;90.10;;;;;;5083362;28;20199;-64
2022/07/19 19:12:02;;;;;;;1.30;1.30;;;25.30;90.20;;;;;;5116083;27;20545;-64
2022/07/19 19:14:31;;;;;;;1.30;1.30;;;25.20;90.20;;;;;;5081521;28;20236;-64
2022/07/19 19:16:58;;;;;;;1.50;1.40;;;25.20;90.30;;;;;;5086679;28;20215;-64
2022/07/19 19:19:26;;;;;;;1.88;1.77;;;25.20;90.30;;;;;;5086423;28;20220;-64
2022/07/19 19:21:54;;;;;;;1.65;1.55;;;25.10;90.30;;;;;;5086254;28;20196;-64
2022/07/19 19:24:21;;;;;;;1.23;1.23;;;25.10;90.40;;;;;;5086880;28;20242;-64
2022/07/19 19:26:48;;;;;;;2.13;2.03;;;25.10;90.40;;;;;;5086249;28;20407;-64
2022/07/19 19:29:16;;;;;;;2.22;2.03;;;25.10;90.50;;;;;;5087848;28;20200;-64
2022/07/19 19:31:43;;;;;;;2.10;1.85;;;25.00;90.50;;;;;;5085758;28;20254;-64
2022/07/19 19:34:10;;;;;;;2.50;2.30;;;25.00;90.60;;;;;;5086031;27;20197;-64
2022/07/19 19:36:37;;;;;;;1.90;1.80;;;25.00;90.80;;;;;;5085011;27;20222;-64
2022/07/19 19:39:05;;;;;;;1.95;1.85;;;24.90;90.90;;;;;;5086989;28;20200;-64
2022/07/19 19:41:33;;;;;;;1.80;1.70;;;25.00;90.90;;;;;;5085524;28;20230;-64
2022/07/19 19:44:00;;;;;;;2.15;2.05;;;24.90;91.00;;;;;;5084330;28;20234;-64
2022/07/19 19:46:27;;;;;;;2.22;2.13;;;24.90;91.10;;;;;;5085335;28;20189;-64
2022/07/19 19:48:55;;;;;;;5.53;4.20;;;24.90;91.30;;;;;;5087418;28;20200;-64
2022/07/19 19:51:22;;;;;;;8.52;6.00;;;24.80;91.30;;;;;;5100365;27;20739;-64
2022/07/19 19:53:53;;;;;;;7.85;5.55;;;24.80;91.40;;;;;;5085241;28;20643;-64
2022/07/19 19:56:22;;;;;;;6.18;5.28;;;24.70;91.50;;;;;;5085274;28;20208;-64
2022/07/19 19:58:50;;;;;;;5.47;4.30;;;24.70;91.60;;;;;;5083231;28;20184;-64
2022/07/19 20:01:17;;;;;;;3.75;3.42;;;24.70;91.70;;;;;;5086344;28;20207;-64
2022/07/19 20:03:44;;;;;;;3.90;3.13;;;24.70;91.80;;;;;;5086357;28;20188;-64
2022/07/19 20:06:12;;;;;;;3.20;2.72;;;24.70;91.90;;;;;;5088191;28;20274;-64
2022/07/19 20:08:39;;;;;;;2.47;2.30;;;24.70;92.00;;;;;;5081170;28;20231;-64
2022/07/19 20:11:07;;;;;;;2.92;2.60;;;24.70;92.10;;;;;;5085834;28;20198;-64
2022/07/19 20:13:35;;;;;;;2.28;2.17;;;24.70;92.20;;;;;;5085405;28;20223;-64
2022/07/19 20:16:03;;;;;;;3.22;1.70;;;24.60;92.30;;;;;;5084424;28;20302;-64
2022/07/19 20:18:30;;;;;;;3.03;2.17;;;24.60;92.40;;;;;;5084789;28;20683;-64
2022/07/19 20:20:57;;;;;;;2.72;2.35;;;24.60;92.50;;;;;;5084559;28;20197;-64
2022/07/19 20:23:24;;;;;;;2.28;2.08;;;24.50;92.60;;;;;;5084815;28;20197;-64
2022/07/19 20:25:51;;;;;;;2.22;2.03;;;24.50;92.70;;;;;;5085213;28;20298;-64
2022/07/19 20:28:18;;;;;;;2.20;2.10;;;24.50;92.80;;;;;;5083897;28;20579;-64
2022/07/19 20:30:47;;;;;;;2.67;2.47;;;24.40;92.90;;;;;;5084072;28;20284;-64
2022/07/19 20:33:14;;;;;;;2.30;2.20;;;24.40;93.00;;;;;;5085505;28;20188;-64
2022/07/19 20:35:41;;;;;;;2.20;2.10;;;24.30;93.20;;;;;;5084887;28;20210;-64
2022/07/19 20:38:08;;;;;;;2.95;2.65;;;24.30;93.10;;;;;;5089562;27;20970;-64
2022/07/19 20:40:35;;;;;;;3.15;2.80;;;24.20;93.20;;;;;;5088721;28;20193;-64
2022/07/19 20:43:02;;;;;;;2.50;2.30;;;24.20;93.20;;;;;;5088640;28;20240;-64
2022/07/19 20:45:29;;;;;;;2.95;2.60;;;24.20;93.20;;;;;;5092056;28;20206;-64
2022/07/19 20:47:58;;;;;;;2.78;2.58;;;24.20;93.30;;;;;;5089388;28;20192;-64
2022/07/19 20:50:25;;;;;;;3.05;2.85;;;24.20;93.30;;;;;;5086244;28;20200;-64
2022/07/19 20:52:52;;;;;;;3.42;3.13;;;24.10;93.40;;;;;;5088898;28;20196;-64
2022/07/19 20:55:20;;;;;;;4.53;3.15;;;24.10;93.40;;;;;;5085492;28;20292;-64
2022/07/19 20:57:47;;;;;;;3.45;3.15;;;24.10;93.40;;;;;;5087676;28;20208;-64
2022/07/19 21:00:14;;;;;;;3.05;2.55;;;24.00;93.30;;;;;;5088054;28;20197;-64
2022/07/19 21:02:41;;;;;;;3.05;2.75;;;24.00;93.40;;;;;;5091968;28;20569;-64
2022/07/19 21:05:10;;;;;;;2.70;2.50;;;24.00;93.50;;;;;;5101018;27;20228;-64
2022/07/19 21:07:38;;;;;;;2.17;2.08;;;24.00;93.50;;;;;;5087821;28;20310;-64
2022/07/19 21:10:07;;;;;;;2.78;2.58;;;23.90;93.50;;;;;;5088865;28;20204;-64
2022/07/19 21:12:34;;;;;;;2.78;2.50;;;24.00;93.50;;;;;;5087010;28;20188;-64
2022/07/19 21:15:01;;;;;;;2.65;2.30;;;23.90;93.50;;;;;;5087922;28;20386;-64
2022/07/19 21:17:28;;;;;;;3.00;2.50;;;24.00;93.50;;;;;;5086930;27;20227;-64
2022/07/19 21:19:55;;;;;;;2.25;2.10;;;23.90;93.50;;;;;;5090488;28;20228;-64
2022/07/19 21:22:24;;;;;;;2.80;2.60;;;23.90;93.60;;;;;;5091402;28;20627;-64
2022/07/19 21:24:51;;;;;;;2.53;2.33;;;23.90;93.70;;;;;;5087508;28;20297;-63
2022/07/19 21:27:18;;;;;;;2.50;2.30;;;23.90;93.70;;;;;;5089361;28;20200;-64
2022/07/19 21:29:45;;;;;;;2.70;2.50;;;23.80;93.70;;;;;;5087266;28;20224;-65
2022/07/19 21:32:12;;;;;;;3.95;2.30;;;23.80;93.70;;;;;;5088625;28;20325;-65
2022/07/19 21:34:40;;;;;;;2.28;2.10;;;23.80;93.80;;;;;;5087028;28;20302;-65
2022/07/19 21:37:07;;;;;;;2.72;2.53;;;23.80;93.80;;;;;;5088025;28;20239;-65
2022/07/19 21:39:36;;;;;;;2.75;2.53;;;23.80;93.80;;;;;;5087050;28;20227;-65
2022/07/19 21:42:03;;;;;;;2.50;2.30;;;23.80;93.80;;;;;;5087733;28;20204;-65
2022/07/19 21:44:30;;;;;;;2.47;2.28;;;23.70;94.10;;;;;;5087038;28;20266;-65
2022/07/19 21:46:57;;;;;;;2.08;1.98;;;23.70;93.80;;;;;;5087580;28;20196;-66
2022/07/19 21:49:24;;;;;;;2.30;2.20;;;23.70;93.90;;;;;;5086970;28;20231;-64
2022/07/19 21:51:51;;;;;;;2.30;2.10;;;23.70;93.90;;;;;;5087763;28;20202;-65
2022/07/19 21:54:18;;;;;;;3.05;2.78;;;23.60;93.90;;;;;;5087811;28;20204;-65
2022/07/19 21:56:47;;;;;;;2.65;2.45;;;23.60;93.90;;;;;;5086124;27;20216;-66
2022/07/19 21:59:14;;;;;;;2.35;2.15;;;23.60;93.90;;;;;;5086677;28;20832;-65
2022/07/19 22:01:46;;;;;;;2.55;2.35;;;23.60;94.00;;;;;;5087704;28;20269;-65
2022/07/19 22:04:14;;;;;;;2.55;2.10;;;23.60;94.10;;;;;;5090743;28;20203;-64
2022/07/19 22:06:41;;;;;;;2.58;2.42;;;23.50;94.10;;;;;;5100923;27;20203;-65
2022/07/19 22:09:08;;;;;;;3.50;2.28;;;23.50;94.10;;;;;;5087351;28;20235;-65
2022/07/19 22:11:35;;;;;;;3.00;2.65;;;23.60;94.10;;;;;;5101631;27;20266;-65
2022/07/19 22:14:04;;;;;;;3.00;2.70;;;23.50;94.10;;;;;;5086130;28;20311;-65
2022/07/19 22:16:31;;;;;;;2.72;2.40;;;23.50;94.10;;;;;;5085935;28;20290;-64
2022/07/19 22:18:58;;;;;;;2.40;2.20;;;23.50;94.20;;;;;;5087347;28;20199;-65
2022/07/19 22:21:25;;;;;;;2.45;2.33;;;23.50;94.20;;;;;;5088471;28;20254;-64
2022/07/19 22:23:54;;;;;;;1.90;1.80;;;23.50;94.20;;;;;;5089882;28;20196;-63
2022/07/19 22:26:23;;;;;;;2.28;2.17;;;23.40;94.20;;;;;;5086079;28;20188;-64
2022/07/19 22:28:50;;;;;;;2.30;2.20;;;23.40;94.20;;;;;;5089609;28;20325;-65
2022/07/19 22:31:19;;;;;;;2.38;2.17;;;23.40;94.20;;;;;;5086153;28;20866;-67
2022/07/19 22:33:46;;;;;;;2.85;2.03;;;23.30;94.20;;;;;;5086908;28;20605;-64
2022/07/19 22:36:13;;;;;;;2.00;1.90;;;23.30;94.30;;;;;;5089596;28;20671;-64
2022/07/19 22:38:40;;;;;;;1.80;1.70;;;23.30;94.30;;;;;;5087957;28;20196;-64
2022/07/19 22:41:07;;;;;;;1.70;1.60;;;23.30;94.30;;;;;;5087679;28;20587;-65
2022/07/19 22:43:35;;;;;;;1.65;1.55;;;23.30;94.30;;;;;;5099738;27;20597;-66
2022/07/19 22:46:02;;;;;;;1.80;1.70;;;23.30;94.40;;;;;;5088591;28;20199;-66
2022/07/19 22:48:30;;;;;;;2.00;1.90;;;23.20;94.30;;;;;;5091009;28;20205;-66
2022/07/19 22:50:58;;;;;;;1.90;1.80;;;23.20;94.40;;;;;;5085867;28;20203;-65
2022/07/19 22:53:25;;;;;;;2.00;1.90;;;23.20;94.50;;;;;;5087879;28;20204;-65
2022/07/19 22:55:52;;;;;;;2.33;2.13;;;23.20;94.50;;;;;;5087676;28;20254;-66
2022/07/19 22:58:19;;;;;;;2.22;2.10;;;23.20;94.50;;;;;;5085447;28;20215;-64
2022/07/19 23:00:49;;;;;;;2.50;2.30;;;23.10;94.50;;;;;;5086747;28;20235;-64
2022/07/19 23:03:16;;;;;;;2.78;2.20;;;23.00;94.60;;;;;;5083482;28;20224;-64
2022/07/19 23:05:45;;;;;;;2.42;2.20;;;23.00;94.70;;;;;;5085908;28;20277;-65
2022/07/19 23:08:12;;;;;;;2.63;2.40;;;23.00;94.80;;;;;;5088902;28;20195;-65
2022/07/19 23:10:39;;;;;;;2.38;2.17;;;23.00;94.80;;;;;;5080993;28;20204;-64
2022/07/19 23:13:06;;;;;;;1.85;1.75;;;23.00;94.80;;;;;;5087290;28;20266;-65
2022/07/19 23:15:33;;;;;;;2.30;2.10;;;23.00;94.90;;;;;;5086957;28;20275;-65
2022/07/19 23:18:01;;;;;;;3.35;2.42;;;23.00;94.90;;;;;;5087018;28;20305;-66
2022/07/19 23:20:28;;;;;;;2.30;2.10;;;23.00;94.90;;;;;;5090744;28;20376;-66
2022/07/19 23:22:56;;;;;;;2.50;1.83;;;22.90;94.90;;;;;;5086355;28;20199;-66
2022/07/19 23:25:23;;;;;;;2.22;2.10;;;22.90;94.90;;;;;;5086541;28;20622;-65
2022/07/19 23:27:50;;;;;;;2.35;2.17;;;22.80;94.90;;;;;;5084738;28;20535;-65
2022/07/19 23:30:17;;;;;;;2.10;2.00;;;22.90;95.00;;;;;;5084071;28;20188;-65
2022/07/19 23:32:45;;;;;;;2.13;1.95;;;22.90;95.00;;;;;;5087073;28;20196;-65
2022/07/19 23:35:12;;;;;;;2.70;2.50;;;22.80;95.00;;;;;;5115727;27;20200;-65
2022/07/19 23:37:39;;;;;;;4.15;2.20;;;22.80;95.00;;;;;;5083949;28;20231;-65
2022/07/19 23:40:09;;;;;;;2.47;2.28;;;22.70;95.00;;;;;;5086890;28;20208;-65
2022/07/19 23:42:36;;;;;;;3.42;2.47;;;22.70;95.10;;;;;;5085431;28;20291;-64
2022/07/19 23:45:03;;;;;;;2.38;2.17;;;22.70;95.20;;;;;;5085415;28;20235;-65
2022/07/19 23:47:31;;;;;;;3.00;2.70;;;22.60;95.20;;;;;;5085224;28;20192;-65
2022/07/19 23:49:58;;;;;;;2.45;2.25;;;22.60;95.20;;;;;;5082014;28;20230;-65
2022/07/19 23:52:28;;;;;;;2.38;2.17;;;22.60;95.20;;;;;;5081184;28;20703;-65
2022/07/19 23:54:55;;;;;;;1.95;1.85;;;22.60;95.20;;;;;;5081080;28;20204;-65
2022/07/19 23:57:23;;;;;;;2.20;2.10;;;22.70;95.30;;;;;;5084829;28;20437;-65
2022/07/19 23:59:50;;;;;;;2.50;2.30;;;22.60;95.30;;;;;;5085280;28;20819;-65
